EXS51FG EGNM-LGKO
Flight info
| Callsign | EXS51FG |
|---|---|
| Flight time | N/A |
| Altitude | 37000 |
| Route | LAMIX L603 DOLAS DCT NAVPI DCT DODEN DCT NEGIX DCT DINKU DCT BESNI DCT LATLO DCT OBEDI DCT MAGAM DCT TEBLI DCT GORAV DCT MEDUX UM867 KOGAT DCT ERANA UL737 TSL UN130 ESOPO DCT MES UN139 LURUS L995 KOPAR |
| Aircraft | B738/M-SDFGHIJ3J4J7M3RWXY/LB1 |
Departure
| Time | N/A |
|---|---|
| Airport | Leeds Bradford Airport (EGNM) |
Arrival
| Time | 2026-05-05 19:35 |
|---|---|
| Airport | Kos International Airport "Ippokratis" (LGKO) |
| Time | Latitude | Longitude | Altitude | Speed | Heading |
|---|---|---|---|---|---|
| 2026-05-05 18:52 | 40.16194 | 23.39710 | 37013 ft | 492 kts | 133° |
| 2026-05-05 18:52 | 40.13818 | 23.42954 | 37044 ft | 492 kts | 133° |
| 2026-05-05 18:53 | 40.09885 | 23.48322 | 37037 ft | 492 kts | 133° |
| 2026-05-05 18:53 | 40.05143 | 23.54781 | 37032 ft | 492 kts | 133° |
| 2026-05-05 18:54 | 40.00402 | 23.61225 | 37033 ft | 492 kts | 133° |
| 2026-05-05 18:54 | 39.95645 | 23.67677 | 37042 ft | 492 kts | 133° |
| 2026-05-05 18:55 | 39.90912 | 23.74082 | 37036 ft | 493 kts | 133° |
| 2026-05-05 18:55 | 39.86146 | 23.80519 | 37041 ft | 494 kts | 133° |
| 2026-05-05 18:56 | 39.81357 | 23.86973 | 37035 ft | 495 kts | 133° |
| 2026-05-05 18:56 | 39.76590 | 23.93383 | 37039 ft | 495 kts | 133° |
| 2026-05-05 18:57 | 39.71782 | 23.99834 | 37039 ft | 496 kts | 133° |
| 2026-05-05 18:57 | 39.66970 | 24.06278 | 37041 ft | 496 kts | 133° |
| 2026-05-05 18:58 | 39.62201 | 24.12651 | 37043 ft | 496 kts | 133° |
| 2026-05-05 18:58 | 39.57379 | 24.19080 | 37031 ft | 496 kts | 134° |
| 2026-05-05 18:59 | 39.52561 | 24.25490 | 37043 ft | 495 kts | 134° |
| 2026-05-05 18:59 | 39.47775 | 24.31846 | 37046 ft | 495 kts | 134° |
| 2026-05-05 19:00 | 39.42948 | 24.38242 | 37046 ft | 495 kts | 134° |
| 2026-05-05 19:00 | 39.38153 | 24.44584 | 37057 ft | 495 kts | 134° |
| 2026-05-05 19:01 | 39.33334 | 24.50945 | 37050 ft | 495 kts | 134° |
| 2026-05-05 19:01 | 39.28509 | 24.57305 | 37040 ft | 495 kts | 134° |
| 2026-05-05 19:02 | 39.23689 | 24.63654 | 37055 ft | 494 kts | 134° |
| 2026-05-05 19:02 | 39.18895 | 24.69956 | 37054 ft | 494 kts | 134° |
| 2026-05-05 19:03 | 39.14067 | 24.76291 | 37055 ft | 494 kts | 134° |
| 2026-05-05 19:03 | 39.09266 | 24.82577 | 37058 ft | 495 kts | 134° |
| 2026-05-05 19:04 | 39.04417 | 24.88912 | 37061 ft | 495 kts | 134° |
| 2026-05-05 19:04 | 38.99257 | 24.94774 | 37049 ft | 494 kts | 147° |
| 2026-05-05 19:05 | 38.93495 | 24.99510 | 37059 ft | 495 kts | 149° |
| 2026-05-05 19:05 | 38.87678 | 25.04205 | 37065 ft | 496 kts | 148° |
| 2026-05-05 19:06 | 38.81857 | 25.08983 | 37059 ft | 497 kts | 148° |
| 2026-05-05 19:06 | 38.76035 | 25.13809 | 37060 ft | 497 kts | 148° |
| 2026-05-05 19:07 | 38.70242 | 25.18615 | 37058 ft | 498 kts | 148° |
| 2026-05-05 19:07 | 38.64410 | 25.23442 | 37065 ft | 498 kts | 148° |
| 2026-05-05 19:08 | 38.58607 | 25.28231 | 37063 ft | 499 kts | 148° |
| 2026-05-05 19:08 | 38.52748 | 25.33055 | 37082 ft | 499 kts | 148° |
| 2026-05-05 19:09 | 38.46944 | 25.37825 | 37049 ft | 499 kts | 148° |
| 2026-05-05 19:09 | 38.41052 | 25.42659 | 37064 ft | 499 kts | 148° |
| 2026-05-05 19:10 | 38.35228 | 25.47426 | 37065 ft | 499 kts | 148° |
| 2026-05-05 19:10 | 38.29353 | 25.52227 | 37066 ft | 500 kts | 148° |
| 2026-05-05 19:11 | 38.23500 | 25.57000 | 37065 ft | 500 kts | 148° |
| 2026-05-05 19:11 | 38.17633 | 25.61775 | 37063 ft | 500 kts | 148° |
| 2026-05-05 19:12 | 38.11744 | 25.66558 | 36569 ft | 506 kts | 148° |
| 2026-05-05 19:12 | 38.08815 | 25.68934 | 36027 ft | 504 kts | 148° |
| 2026-05-05 19:12 | 38.05822 | 25.71360 | 35390 ft | 505 kts | 148° |
| 2026-05-05 19:13 | 38.02890 | 25.73733 | 34748 ft | 506 kts | 148° |
| 2026-05-05 19:13 | 37.99914 | 25.76140 | 34073 ft | 509 kts | 148° |
| 2026-05-05 19:13 | 37.96919 | 25.78560 | 33294 ft | 511 kts | 148° |
| 2026-05-05 19:13 | 37.93908 | 25.80991 | 32553 ft | 513 kts | 148° |
| 2026-05-05 19:14 | 37.90888 | 25.83426 | 31829 ft | 514 kts | 148° |
| 2026-05-05 19:14 | 37.87856 | 25.85868 | 31091 ft | 516 kts | 148° |
| 2026-05-05 19:14 | 37.84858 | 25.88281 | 30328 ft | 518 kts | 148° |
| 2026-05-05 19:14 | 37.81807 | 25.90735 | 29438 ft | 521 kts | 148° |
| 2026-05-05 19:15 | 37.78762 | 25.93181 | 28863 ft | 515 kts | 148° |
| 2026-05-05 19:15 | 37.75740 | 25.95606 | 28273 ft | 511 kts | 148° |
| 2026-05-05 19:15 | 37.72736 | 25.98014 | 27689 ft | 506 kts | 148° |
| 2026-05-05 19:15 | 37.69778 | 26.00383 | 27114 ft | 501 kts | 148° |
| 2026-05-05 19:16 | 37.66888 | 26.02696 | 26566 ft | 497 kts | 148° |
| 2026-05-05 19:16 | 37.63977 | 26.05023 | 26009 ft | 492 kts | 148° |
| 2026-05-05 19:16 | 37.61096 | 26.07323 | 25470 ft | 488 kts | 148° |
| 2026-05-05 19:16 | 37.58226 | 26.09614 | 24923 ft | 485 kts | 148° |
| 2026-05-05 19:17 | 37.55386 | 26.11878 | 24371 ft | 482 kts | 148° |
| 2026-05-05 19:17 | 37.52585 | 26.14109 | 23805 ft | 479 kts | 148° |
| 2026-05-05 19:17 | 37.49769 | 26.16349 | 23182 ft | 476 kts | 148° |
| 2026-05-05 19:17 | 37.46979 | 26.18567 | 22585 ft | 471 kts | 148° |
| 2026-05-05 19:18 | 37.44214 | 26.20763 | 22041 ft | 465 kts | 148° |
| 2026-05-05 19:18 | 37.41493 | 26.22922 | 21483 ft | 460 kts | 148° |
| 2026-05-05 19:18 | 37.38835 | 26.25029 | 20955 ft | 455 kts | 148° |
| 2026-05-05 19:18 | 37.36174 | 26.27138 | 20443 ft | 450 kts | 147° |
| 2026-05-05 19:19 | 37.33537 | 26.29225 | 19904 ft | 445 kts | 147° |
| 2026-05-05 19:19 | 37.30932 | 26.31285 | 19382 ft | 440 kts | 147° |
| 2026-05-05 19:19 | 37.28349 | 26.33326 | 18868 ft | 436 kts | 147° |
| 2026-05-05 19:19 | 37.25792 | 26.35345 | 18350 ft | 431 kts | 147° |
| 2026-05-05 19:20 | 37.23260 | 26.37343 | 17767 ft | 427 kts | 147° |
| 2026-05-05 19:20 | 37.20749 | 26.39322 | 17218 ft | 422 kts | 147° |
| 2026-05-05 19:20 | 37.18308 | 26.41245 | 16710 ft | 417 kts | 147° |
| 2026-05-05 19:20 | 37.15856 | 26.43175 | 16187 ft | 412 kts | 147° |
| 2026-05-05 19:21 | 37.13441 | 26.45074 | 15689 ft | 408 kts | 147° |
| 2026-05-05 19:21 | 37.11040 | 26.46961 | 15194 ft | 404 kts | 147° |
| 2026-05-05 19:21 | 37.08695 | 26.48802 | 14710 ft | 400 kts | 147° |
| 2026-05-05 19:21 | 37.06338 | 26.50652 | 14218 ft | 397 kts | 147° |
| 2026-05-05 19:22 | 37.04006 | 26.52482 | 13718 ft | 394 kts | 147° |
| 2026-05-05 19:22 | 37.01683 | 26.54302 | 13178 ft | 391 kts | 146° |
| 2026-05-05 19:22 | 36.99381 | 26.56104 | 12673 ft | 388 kts | 146° |
| 2026-05-05 19:22 | 36.97126 | 26.57869 | 12193 ft | 384 kts | 146° |
| 2026-05-05 19:23 | 36.94863 | 26.59639 | 11701 ft | 381 kts | 146° |
| 2026-05-05 19:23 | 36.92618 | 26.61393 | 11221 ft | 378 kts | 146° |
| 2026-05-05 19:23 | 36.90392 | 26.63133 | 10785 ft | 375 kts | 146° |
| 2026-05-05 19:23 | 36.88247 | 26.64807 | 10621 ft | 363 kts | 146° |
| 2026-05-05 19:24 | 36.86129 | 26.66458 | 10443 ft | 353 kts | 146° |
| 2026-05-05 19:24 | 36.84076 | 26.68056 | 10285 ft | 343 kts | 146° |
| 2026-05-05 19:24 | 36.82195 | 26.69803 | 10124 ft | 330 kts | 132° |
| 2026-05-05 19:24 | 36.80671 | 26.71888 | 9998 ft | 319 kts | 127° |
| 2026-05-05 19:25 | 36.79236 | 26.73945 | 9669 ft | 317 kts | 127° |
| 2026-05-05 19:25 | 36.77784 | 26.76016 | 9348 ft | 314 kts | 128° |
| 2026-05-05 19:25 | 36.76337 | 26.78052 | 9032 ft | 312 kts | 128° |
| 2026-05-05 19:25 | 36.74891 | 26.80065 | 8720 ft | 310 kts | 129° |
| 2026-05-05 19:26 | 36.73450 | 26.82057 | 8409 ft | 308 kts | 129° |
| 2026-05-05 19:26 | 36.72016 | 26.84031 | 8099 ft | 306 kts | 129° |
| 2026-05-05 19:26 | 36.70608 | 26.85965 | 7795 ft | 304 kts | 129° |
| 2026-05-05 19:26 | 36.69235 | 26.87960 | 7496 ft | 301 kts | 120° |
| 2026-05-05 19:27 | 36.68240 | 26.90219 | 7206 ft | 296 kts | 111° |
| 2026-05-05 19:27 | 36.67379 | 26.92537 | 6904 ft | 294 kts | 111° |
| 2026-05-05 19:27 | 36.66504 | 26.94852 | 6603 ft | 294 kts | 111° |
| 2026-05-05 19:27 | 36.65611 | 26.97142 | 6296 ft | 293 kts | 112° |
| 2026-05-05 19:28 | 36.64717 | 26.99392 | 6128 ft | 286 kts | 112° |
| 2026-05-05 19:28 | 36.63852 | 27.01553 | 6004 ft | 278 kts | 112° |
| 2026-05-05 19:28 | 36.62994 | 27.03686 | 5878 ft | 271 kts | 112° |
| 2026-05-05 19:28 | 36.62169 | 27.05735 | 5757 ft | 263 kts | 112° |
| 2026-05-05 19:29 | 36.61358 | 27.07745 | 5655 ft | 255 kts | 112° |
| 2026-05-05 19:29 | 36.60569 | 27.09700 | 5559 ft | 251 kts | 112° |
| 2026-05-05 19:29 | 36.59789 | 27.11634 | 5462 ft | 249 kts | 112° |
| 2026-05-05 19:29 | 36.59274 | 27.13674 | 5221 ft | 246 kts | 85° |
| 2026-05-05 19:30 | 36.59442 | 27.15747 | 5043 ft | 242 kts | 71° |
| 2026-05-05 19:30 | 36.60036 | 27.17687 | 4622 ft | 243 kts | 60° |
| 2026-05-05 19:30 | 36.60903 | 27.19482 | 4167 ft | 238 kts | 43° |
| 2026-05-05 19:30 | 36.62242 | 27.20528 | 3847 ft | 221 kts | 15° |
| 2026-05-05 19:31 | 36.63712 | 27.20732 | 3575 ft | 206 kts | 354° |
| 2026-05-05 19:31 | 36.65069 | 27.20292 | 3346 ft | 200 kts | 335° |
| 2026-05-05 19:31 | 36.66230 | 27.19417 | 3136 ft | 194 kts | 330° |
| 2026-05-05 19:31 | 36.67351 | 27.18537 | 2911 ft | 186 kts | 329° |
| 2026-05-05 19:32 | 36.68427 | 27.17691 | 2679 ft | 179 kts | 329° |
| 2026-05-05 19:32 | 36.69466 | 27.16877 | 2432 ft | 174 kts | 329° |
| 2026-05-05 19:32 | 36.70474 | 27.16093 | 2215 ft | 167 kts | 328° |
| 2026-05-05 19:32 | 36.71424 | 27.15355 | 2015 ft | 154 kts | 328° |
| 2026-05-05 19:33 | 36.72277 | 27.14694 | 1852 ft | 138 kts | 328° |
| 2026-05-05 19:33 | 36.73080 | 27.14071 | 1646 ft | 134 kts | 328° |
| 2026-05-05 19:33 | 36.73877 | 27.13453 | 1475 ft | 137 kts | 327° |
| 2026-05-05 19:33 | 36.74696 | 27.12817 | 1303 ft | 140 kts | 327° |
| 2026-05-05 19:34 | 36.75528 | 27.12169 | 1104 ft | 142 kts | 327° |
| 2026-05-05 19:34 | 36.76375 | 27.11507 | 935 ft | 146 kts | 327° |
| 2026-05-05 19:34 | 36.77247 | 27.10818 | 735 ft | 149 kts | 328° |
| 2026-05-05 19:35 | 36.78975 | 27.09487 | 397 ft | 139 kts | 327° |
| 2026-05-05 19:35 | 36.79620 | 27.08986 | 413 ft | 78 kts | 328° |
| 2026-05-05 19:35 | 36.79974 | 27.08712 | 414 ft | 50 kts | 328° |
| 2026-05-05 19:35 | 36.80211 | 27.08527 | 411 ft | 32 kts | 327° |
| 2026-05-05 19:36 | 36.80314 | 27.08452 | 419 ft | 9 kts | 347° |
| 2026-05-05 19:36 | 36.80358 | 27.08489 | 419 ft | 9 kts | 84° |
| 2026-05-05 19:36 | 36.80344 | 27.08565 | 414 ft | 10 kts | 104° |
| 2026-05-05 19:36 | 36.80325 | 27.08657 | 416 ft | 11 kts | 115° |
| 2026-05-05 19:37 | 36.80291 | 27.08703 | 408 ft | 11 kts | 142° |
| 2026-05-05 19:37 | 36.80228 | 27.08754 | 419 ft | 11 kts | 148° |
| 2026-05-05 19:37 | 36.80163 | 27.08805 | 414 ft | 12 kts | 147° |
| 2026-05-05 19:37 | 36.80094 | 27.08859 | 418 ft | 11 kts | 148° |
| 2026-05-05 19:38 | 36.80028 | 27.08911 | 418 ft | 11 kts | 148° |
| 2026-05-05 19:38 | 36.79981 | 27.08951 | 414 ft | 5 kts | 127° |
| 2026-05-05 19:38 | 36.79982 | 27.08977 | 415 ft | 3 kts | 69° |
| 2026-05-05 19:38 | 36.79991 | 27.08997 | 414 ft | 3 kts | 59° |
| 2026-05-05 19:39 | 36.80000 | 27.09016 | 412 ft | 3 kts | 58° |
| 2026-05-05 19:39 | 36.80006 | 27.09027 | 412 ft | 0 kts | 58° |
| 2026-05-05 19:39 | 36.80006 | 27.09028 | 412 ft | 0 kts | 58° |